Time;durP1;ratioP1;P1;durP2;ratioP2;P2;SDS_P1;SDS_P2;PMS_P1;PMS_P2;Temp;Humidity;BMP_temperature;BMP_pressure;BME280_temperature;BME280_humidity;BME280_pressure;Samples;Min_cycle;Max_cycle;Signal;HPM_P1;HPM_P2
2023/09/16 00:00:08;;;;;;;9.47;4.60;;;12.40;99.90;;;;;;5071840;28;20239;-68
2023/09/16 00:02:37;;;;;;;6.60;3.80;;;12.40;99.90;;;;;;5071342;28;20265;-66
2023/09/16 00:05:04;;;;;;;6.80;3.90;;;12.40;99.90;;;;;;5071379;28;20224;-65
2023/09/16 00:07:30;;;;;;;7.60;3.90;;;12.40;99.90;;;;;;5070795;28;20189;-69
2023/09/16 00:09:56;;;;;;;9.17;4.13;;;12.40;99.90;;;;;;5071178;28;20199;-66
2023/09/16 00:12:25;;;;;;;9.67;4.30;;;12.30;99.90;;;;;;5071260;28;20247;-68
2023/09/16 00:14:51;;;;;;;7.83;4.07;;;12.20;99.90;;;;;;5063760;28;20275;-66
2023/09/16 00:17:17;;;;;;;7.57;3.80;;;12.30;99.90;;;;;;5070956;28;20903;-66
2023/09/16 00:19:43;;;;;;;6.60;4.03;;;12.20;99.90;;;;;;5070328;28;20262;-66
2023/09/16 00:22:10;;;;;;;6.53;4.00;;;12.20;99.90;;;;;;5071181;28;20190;-67
2023/09/16 00:24:40;;;;;;;7.97;3.97;;;12.10;99.90;;;;;;5070680;28;20210;-67
2023/09/16 00:27:07;;;;;;;12.37;4.20;;;12.10;99.90;;;;;;5071059;28;20202;-67
2023/09/16 00:29:33;;;;;;;11.80;4.17;;;12.10;99.90;;;;;;5070087;28;20210;-67
2023/09/16 00:32:01;;;;;;;6.57;3.83;;;12.10;99.90;;;;;;5070915;28;20182;-66
2023/09/16 00:34:26;;;;;;;9.73;4.23;;;12.00;99.90;;;;;;5070601;28;20198;-66
2023/09/16 00:36:52;;;;;;;9.93;4.63;;;11.90;99.90;;;;;;5070848;28;20232;-68
2023/09/16 00:39:17;;;;;;;9.13;4.87;;;11.90;99.90;;;;;;5069974;28;20297;-67
2023/09/16 00:41:43;;;;;;;6.33;3.77;;;12.00;99.90;;;;;;5069872;28;20186;-67
2023/09/16 00:44:10;;;;;;;7.37;3.77;;;12.00;99.90;;;;;;5070898;28;20194;-66
2023/09/16 00:46:36;;;;;;;6.70;3.90;;;11.90;99.90;;;;;;5070681;28;20663;-68
2023/09/16 00:49:02;;;;;;;5.10;3.90;;;11.90;99.90;;;;;;5069872;28;20622;-65
2023/09/16 00:51:28;;;;;;;6.40;4.00;;;11.90;99.90;;;;;;5070473;28;20274;-66
2023/09/16 00:53:53;;;;;;;7.10;3.93;;;11.90;99.90;;;;;;5070510;28;20193;-67
2023/09/16 00:56:19;;;;;;;9.40;4.00;;;11.90;99.90;;;;;;5070609;28;20273;-68
2023/09/16 00:58:45;;;;;;;7.10;4.00;;;11.90;99.90;;;;;;5069566;28;20182;-66
2023/09/16 01:01:13;;;;;;;8.90;3.53;;;11.90;99.90;;;;;;5070545;28;20209;-66
2023/09/16 01:03:41;;;;;;;7.23;3.70;;;11.90;99.90;;;;;;5070262;28;20171;-66
2023/09/16 01:06:07;;;;;;;5.90;3.50;;;11.90;99.90;;;;;;5070483;28;20210;-67
2023/09/16 01:08:34;;;;;;;6.37;3.93;;;11.90;99.90;;;;;;5069516;28;20189;-66
2023/09/16 01:11:04;;;;;;;6.53;3.53;;;11.80;99.90;;;;;;5070433;28;20206;-66
2023/09/16 01:13:33;;;;;;;7.67;4.37;;;11.80;99.90;;;;;;5070272;28;20186;-66
2023/09/16 01:16:07;;;;;;;6.73;3.90;;;11.70;99.90;;;;;;5070244;28;20194;-67
2023/09/16 01:18:39;;;;;;;8.93;4.60;;;11.70;99.90;;;;;;5069165;28;20202;-67
2023/09/16 01:21:05;;;;;;;7.80;3.80;;;11.70;99.90;;;;;;5070408;28;20174;-68
2023/09/16 01:23:32;;;;;;;10.10;4.17;;;11.70;99.90;;;;;;5070224;28;20183;-67
2023/09/16 01:25:58;;;;;;;7.80;3.80;;;11.70;99.90;;;;;;5070263;28;20555;-66
2023/09/16 01:28:25;;;;;;;5.90;3.50;;;11.70;99.90;;;;;;5069246;28;20189;-66
2023/09/16 01:30:51;;;;;;;6.20;3.83;;;11.70;99.90;;;;;;5070164;28;20209;-67
2023/09/16 01:33:24;;;;;;;6.53;3.50;;;11.60;99.90;;;;;;5069994;28;20537;-67
2023/09/16 01:35:55;;;;;;;6.43;4.00;;;11.60;99.90;;;;;;5070217;28;20194;-66
2023/09/16 01:38:23;;;;;;;5.83;3.70;;;11.60;99.90;;;;;;5078210;28;20636;-67
2023/09/16 01:40:51;;;;;;;9.97;3.80;;;11.60;99.90;;;;;;5073876;28;20181;-68
2023/09/16 01:43:18;;;;;;;6.97;3.50;;;11.50;99.90;;;;;;5081930;28;20272;-67
2023/09/16 01:45:45;;;;;;;7.80;3.30;;;11.60;99.90;;;;;;5070315;28;20202;-67
2023/09/16 01:48:11;;;;;;;7.17;4.10;;;11.50;99.90;;;;;;5069127;28;20194;-66
2023/09/16 01:50:37;;;;;;;5.40;3.50;;;11.60;99.90;;;;;;5069917;28;20202;-67
2023/09/16 01:53:06;;;;;;;7.37;3.57;;;11.50;99.90;;;;;;5073338;28;20277;-66
2023/09/16 01:55:32;;;;;;;9.20;3.43;;;11.50;99.90;;;;;;5073838;28;20202;-66
2023/09/16 01:57:58;;;;;;;6.10;3.50;;;11.50;99.90;;;;;;5073297;28;20243;-67
2023/09/16 02:00:23;;;;;;;6.53;4.10;;;11.50;99.90;;;;;;5073698;28;20236;-69
2023/09/16 02:02:49;;;;;;;9.77;3.77;;;11.50;99.90;;;;;;5073761;28;20194;-69
2023/09/16 02:05:15;;;;;;;9.93;3.80;;;11.40;99.90;;;;;;5073857;28;20217;-68
2023/09/16 02:07:42;;;;;;;5.83;3.77;;;11.50;99.90;;;;;;5072922;28;20657;-69
2023/09/16 02:10:08;;;;;;;5.73;3.73;;;11.50;99.90;;;;;;5073783;28;20221;-67
2023/09/16 02:12:33;;;;;;;11.17;3.57;;;11.50;99.90;;;;;;5073529;28;20654;-68
2023/09/16 02:14:59;;;;;;;4.90;3.20;;;11.50;99.90;;;;;;5073562;28;20673;-66
2023/09/16 02:17:25;;;;;;;8.30;3.67;;;11.40;99.90;;;;;;5073070;28;20187;-67
2023/09/16 02:19:51;;;;;;;6.00;3.57;;;11.40;99.90;;;;;;5072951;28;20183;-66
2023/09/16 02:22:17;;;;;;;6.40;3.73;;;11.50;99.90;;;;;;5073557;28;20174;-67
2023/09/16 02:24:43;;;;;;;5.93;3.67;;;11.40;99.90;;;;;;5073287;28;20228;-66
2023/09/16 02:27:09;;;;;;;7.77;3.83;;;11.40;99.90;;;;;;5073405;28;20618;-66
2023/09/16 02:29:34;;;;;;;6.77;3.97;;;11.40;99.90;;;;;;5072281;28;20268;-67
2023/09/16 02:32:00;;;;;;;5.13;3.47;;;11.30;99.90;;;;;;5073294;28;20185;-67
2023/09/16 02:34:26;;;;;;;6.57;3.87;;;11.30;99.90;;;;;;5073056;28;20217;-67
2023/09/16 02:36:51;;;;;;;7.40;3.53;;;11.40;99.90;;;;;;5073135;28;20277;-66
2023/09/16 02:39:17;;;;;;;5.27;3.50;;;11.30;99.90;;;;;;5072518;28;20194;-66
2023/09/16 02:41:42;;;;;;;6.43;3.50;;;11.30;99.90;;;;;;5072963;28;20260;-68
2023/09/16 02:44:08;;;;;;;7.93;3.40;;;11.30;99.90;;;;;;5072935;28;20237;-67
2023/09/16 02:46:34;;;;;;;10.77;4.60;;;11.30;99.90;;;;;;5073027;28;20205;-66
2023/09/16 02:49:02;;;;;;;5.97;3.60;;;11.30;99.90;;;;;;5072034;28;20190;-66
2023/09/16 02:51:27;;;;;;;6.20;3.80;;;11.30;99.90;;;;;;5072384;28;20662;-66
2023/09/16 02:53:56;;;;;;;6.57;3.20;;;11.30;99.90;;;;;;5072776;28;20210;-68
2023/09/16 02:56:21;;;;;;;7.87;3.70;;;11.20;99.90;;;;;;5072899;28;20228;-67
2023/09/16 02:58:47;;;;;;;7.77;3.60;;;11.30;99.90;;;;;;5071761;28;20190;-66
2023/09/16 03:01:12;;;;;;;8.30;3.40;;;11.20;99.90;;;;;;5072965;28;20240;-67
2023/09/16 03:03:38;;;;;;;5.87;3.40;;;11.20;99.90;;;;;;5071601;28;20182;-66
2023/09/16 03:06:04;;;;;;;5.60;3.63;;;11.20;99.90;;;;;;5071418;28;20285;-66
2023/09/16 03:08:29;;;;;;;5.67;3.70;;;11.20;99.90;;;;;;5071748;28;20771;-67
2023/09/16 03:11:13;;;;;;;6.83;4.07;;;11.20;99.90;;;;;;5072487;28;20214;-66
2023/09/16 03:13:39;;;;;;;12.60;3.90;;;11.20;99.90;;;;;;5072600;28;20204;-67
2023/09/16 03:16:18;;;;;;;5.97;3.40;;;11.20;99.90;;;;;;5072462;28;20539;-67
2023/09/16 03:18:46;;;;;;;7.60;4.20;;;11.20;99.90;;;;;;5071413;28;20203;-66
2023/09/16 03:21:13;;;;;;;7.57;3.70;;;11.20;99.90;;;;;;5072428;28;20277;-66
2023/09/16 03:23:38;;;;;;;5.13;3.40;;;11.20;99.90;;;;;;5072256;28;20186;-66
2023/09/16 03:26:04;;;;;;;5.87;3.70;;;11.20;99.90;;;;;;5072199;28;20209;-66
2023/09/16 03:28:29;;;;;;;7.13;3.70;;;11.20;99.90;;;;;;5071414;28;20239;-68
2023/09/16 03:30:55;;;;;;;7.90;3.40;;;11.10;99.90;;;;;;5072075;28;20240;-67
2023/09/16 03:33:20;;;;;;;5.70;3.83;;;11.10;99.90;;;;;;5072050;28;20179;-66
2023/09/16 03:35:46;;;;;;;10.13;4.03;;;11.10;99.90;;;;;;5071872;28;20198;-67
2023/09/16 03:38:12;;;;;;;7.13;3.67;;;11.10;99.90;;;;;;5071435;28;20182;-67
2023/09/16 03:40:37;;;;;;;6.47;3.73;;;11.10;99.90;;;;;;5071777;28;20612;-67
2023/09/16 03:43:04;;;;;;;5.40;3.57;;;11.10;99.90;;;;;;5072009;28;20198;-67
2023/09/16 03:45:29;;;;;;;6.97;4.13;;;11.10;99.90;;;;;;5071711;28;20207;-68
2023/09/16 03:47:55;;;;;;;10.80;4.40;;;11.10;99.90;;;;;;5071027;28;20554;-68
2023/09/16 03:50:21;;;;;;;8.10;3.50;;;11.10;99.90;;;;;;5071706;28;20214;-68
2023/09/16 03:52:48;;;;;;;7.47;3.70;;;11.00;99.90;;;;;;5071584;28;20178;-67
2023/09/16 03:55:14;;;;;;;6.93;3.40;;;11.00;99.90;;;;;;5071907;28;20205;-67
2023/09/16 03:57:39;;;;;;;9.67;3.50;;;11.00;99.90;;;;;;5070741;28;20178;-68
2023/09/16 04:00:07;;;;;;;13.52;4.30;;;11.00;99.90;;;;;;5070961;28;20843;-66
2023/09/16 04:02:32;;;;;;;5.20;3.60;;;11.00;99.90;;;;;;5071305;28;20194;-66
2023/09/16 04:04:58;;;;;;;7.60;4.07;;;11.00;99.90;;;;;;5071447;28;20199;-66
2023/09/16 04:07:23;;;;;;;4.87;3.43;;;11.00;99.90;;;;;;5071471;28;20191;-67
2023/09/16 04:09:49;;;;;;;7.17;4.20;;;11.00;99.90;;;;;;5070495;28;20206;-66
2023/09/16 04:12:15;;;;;;;5.53;3.40;;;11.00;99.90;;;;;;5071579;28;20235;-67
2023/09/16 04:14:40;;;;;;;6.77;3.97;;;11.00;99.90;;;;;;5071092;28;20202;-67
2023/09/16 04:17:06;;;;;;;8.57;4.10;;;10.90;99.90;;;;;;5071348;28;20187;-67
2023/09/16 04:19:32;;;;;;;7.20;3.90;;;10.90;99.90;;;;;;5070320;28;20255;-67
2023/09/16 04:21:57;;;;;;;6.27;3.83;;;10.90;99.90;;;;;;5071251;28;20269;-67
2023/09/16 04:24:23;;;;;;;5.70;3.83;;;10.90;99.90;;;;;;5071007;28;20755;-66
2023/09/16 04:26:48;;;;;;;9.77;3.60;;;10.90;99.90;;;;;;5070095;28;20266;-67
2023/09/16 04:29:14;;;;;;;7.00;4.17;;;11.00;99.90;;;;;;5070066;28;20249;-68
2023/09/16 04:31:39;;;;;;;8.73;3.47;;;11.00;99.90;;;;;;5070882;28;20260;-66
2023/09/16 04:34:05;;;;;;;8.63;3.80;;;10.90;99.90;;;;;;5070589;28;20268;-66
2023/09/16 04:36:30;;;;;;;5.27;3.60;;;10.90;99.90;;;;;;5070697;28;20209;-67
2023/09/16 04:38:57;;;;;;;6.73;3.80;;;10.90;99.90;;;;;;5070136;28;20175;-68
2023/09/16 04:41:23;;;;;;;7.30;3.70;;;10.90;99.90;;;;;;5071040;28;20207;-67
2023/09/16 04:43:49;;;;;;;6.73;3.93;;;10.80;99.90;;;;;;5070614;28;20183;-67
2023/09/16 04:46:18;;;;;;;9.10;3.50;;;10.80;99.90;;;;;;5070618;28;20201;-67
2023/09/16 04:48:45;;;;;;;5.03;3.20;;;10.80;99.90;;;;;;5089159;28;20276;-67
2023/09/16 04:51:10;;;;;;;6.03;3.63;;;10.80;99.90;;;;;;5084563;28;20233;-68
2023/09/16 04:53:36;;;;;;;5.53;3.33;;;10.80;99.90;;;;;;5089114;28;20660;-66
2023/09/16 04:56:05;;;;;;;5.83;3.43;;;10.80;99.90;;;;;;5090892;28;20672;-66
2023/09/16 04:58:31;;;;;;;7.13;3.53;;;10.80;99.90;;;;;;5089223;28;20544;-67
2023/09/16 05:00:59;;;;;;;5.07;3.37;;;10.70;99.90;;;;;;5083437;28;20174;-67
2023/09/16 05:03:24;;;;;;;6.50;3.87;;;10.70;99.90;;;;;;5090719;28;20181;-68
2023/09/16 05:05:52;;;;;;;11.03;3.70;;;10.70;99.90;;;;;;5073763;28;20217;-66
2023/09/16 05:08:17;;;;;;;6.53;3.60;;;10.70;99.90;;;;;;5082786;28;20249;-67
2023/09/16 05:10:43;;;;;;;5.40;3.50;;;10.70;99.90;;;;;;5089318;28;20688;-67
2023/09/16 05:13:09;;;;;;;6.23;3.33;;;10.70;99.90;;;;;;5086411;28;20540;-67
2023/09/16 05:15:34;;;;;;;5.97;3.47;;;10.70;99.90;;;;;;5088178;28;20206;-67
2023/09/16 05:18:00;;;;;;;6.60;3.80;;;10.70;99.90;;;;;;5081953;28;20194;-67
2023/09/16 05:20:26;;;;;;;5.63;3.50;;;10.70;99.90;;;;;;5081375;28;20261;-69
2023/09/16 05:22:52;;;;;;;8.43;3.40;;;10.70;99.90;;;;;;5073513;28;20180;-67
2023/09/16 05:25:17;;;;;;;6.17;3.70;;;10.80;99.90;;;;;;5082695;28;20202;-67
2023/09/16 05:27:43;;;;;;;7.27;3.70;;;10.80;99.90;;;;;;5076730;28;20244;-66
2023/09/16 05:30:10;;;;;;;6.50;3.53;;;10.80;99.90;;;;;;5069437;28;20198;-68
2023/09/16 05:32:35;;;;;;;6.27;3.70;;;10.80;99.90;;;;;;5087234;28;20653;-67
2023/09/16 05:35:01;;;;;;;8.17;3.83;;;10.80;99.90;;;;;;5089755;28;20201;-67
2023/09/16 05:37:27;;;;;;;7.97;3.73;;;10.80;99.90;;;;;;5088140;28;20726;-67
2023/09/16 05:39:52;;;;;;;5.13;3.10;;;10.70;99.90;;;;;;5089120;28;20245;-68
2023/09/16 05:42:18;;;;;;;7.43;3.80;;;10.70;99.90;;;;;;5089563;28;20186;-68
2023/09/16 05:44:44;;;;;;;7.97;3.90;;;10.70;99.90;;;;;;5081244;28;20208;-68
2023/09/16 05:47:10;;;;;;;7.53;3.37;;;10.80;99.90;;;;;;5089630;28;20182;-67
2023/09/16 05:49:35;;;;;;;5.20;3.70;;;10.80;99.90;;;;;;5079874;28;20214;-67
2023/09/16 05:52:01;;;;;;;11.30;3.97;;;10.90;99.90;;;;;;5089580;28;20605;-67
2023/09/16 05:54:27;;;;;;;4.83;3.47;;;11.00;99.90;;;;;;5072747;28;20210;-69
2023/09/16 05:56:52;;;;;;;8.10;3.50;;;11.10;99.90;;;;;;5072692;28;20205;-67
2023/09/16 05:59:19;;;;;;;6.40;3.80;;;11.20;99.90;;;;;;5074398;28;20558;-68
2023/09/16 06:01:44;;;;;;;7.60;3.53;;;11.30;99.90;;;;;;5079011;28;20566;-68
2023/09/16 06:04:10;;;;;;;7.17;3.87;;;11.30;99.90;;;;;;5077382;28;20261;-67
2023/09/16 06:06:36;;;;;;;6.23;3.43;;;11.40;99.90;;;;;;5078732;28;20536;-68
2023/09/16 06:09:03;;;;;;;5.00;3.53;;;11.50;99.90;;;;;;5088792;28;20445;-67
2023/09/16 06:11:29;;;;;;;7.23;3.63;;;11.40;99.90;;;;;;5089264;28;20181;-67
2023/09/16 06:13:55;;;;;;;10.70;3.77;;;11.50;99.90;;;;;;5089257;28;20177;-68
2023/09/16 06:16:20;;;;;;;7.97;3.87;;;11.60;99.90;;;;;;5081053;28;20182;-67
2023/09/16 06:18:46;;;;;;;5.73;3.70;;;11.70;99.90;;;;;;5088306;28;20729;-68
2023/09/16 06:21:12;;;;;;;8.23;3.87;;;11.80;99.90;;;;;;5083027;28;20340;-68
2023/09/16 06:23:37;;;;;;;5.27;3.80;;;11.90;99.90;;;;;;5087210;28;20178;-68
2023/09/16 06:26:03;;;;;;;6.90;3.47;;;11.90;99.90;;;;;;5089456;28;20258;-67
2023/09/16 06:28:28;;;;;;;7.13;3.40;;;11.90;99.90;;;;;;5088532;28;20506;-67
2023/09/16 06:30:54;;;;;;;11.33;3.77;;;12.10;99.90;;;;;;5089271;28;20220;-68
2023/09/16 06:33:19;;;;;;;7.40;4.10;;;12.40;99.90;;;;;;5087783;28;20182;-68
2023/09/16 06:35:45;;;;;;;5.67;4.00;;;12.60;99.90;;;;;;5089045;28;20197;-68
2023/09/16 06:38:11;;;;;;;10.93;4.20;;;12.80;99.90;;;;;;5088644;28;20481;-68
2023/09/16 06:40:37;;;;;;;8.80;4.30;;;12.90;99.90;;;;;;5084294;28;20216;-67
2023/09/16 06:43:03;;;;;;;5.50;3.70;;;13.00;99.90;;;;;;5092766;28;20209;-68
2023/09/16 06:45:28;;;;;;;10.97;4.47;;;13.10;99.90;;;;;;5084094;28;20240;-68
2023/09/16 06:47:56;;;;;;;10.90;4.27;;;13.30;99.90;;;;;;5091893;28;20675;-68
2023/09/16 06:50:21;;;;;;;9.80;3.73;;;13.50;99.90;;;;;;5092706;28;20677;-68
2023/09/16 06:52:47;;;;;;;5.57;3.80;;;13.60;99.90;;;;;;5092491;28;20243;-68
2023/09/16 06:55:12;;;;;;;5.87;3.73;;;13.80;99.90;;;;;;5092712;28;20234;-67
2023/09/16 06:57:38;;;;;;;5.70;3.87;;;14.20;99.90;;;;;;5083461;28;20190;-68
2023/09/16 07:00:04;;;;;;;5.43;3.57;;;14.70;99.90;;;;;;5087834;28;20264;-68
2023/09/16 07:02:30;;;;;;;10.40;4.70;;;15.00;99.90;;;;;;5080209;28;20186;-68
2023/09/16 07:04:55;;;;;;;11.57;5.23;;;15.30;99.90;;;;;;5084388;28;20278;-68
2023/09/16 07:07:23;;;;;;;9.77;4.70;;;15.60;99.90;;;;;;5084778;28;20261;-68
2023/09/16 07:09:53;;;;;;;8.33;3.90;;;15.90;99.90;;;;;;5082821;28;20229;-68
2023/09/16 07:12:18;;;;;;;4.33;3.40;;;16.10;99.90;;;;;;5092705;28;20193;-68
2023/09/16 07:14:44;;;;;;;7.13;3.70;;;16.00;99.90;;;;;;5081369;28;20680;-68
2023/09/16 07:17:09;;;;;;;5.90;3.50;;;16.10;99.90;;;;;;5086131;28;20198;-67
2023/09/16 07:19:35;;;;;;;6.00;3.73;;;16.10;99.90;;;;;;5082943;28;20198;-69
2023/09/16 07:22:01;;;;;;;8.70;3.60;;;16.20;99.90;;;;;;5083777;28;20625;-67
2023/09/16 07:24:26;;;;;;;12.60;4.00;;;16.40;99.90;;;;;;5092043;28;20291;-68
2023/09/16 07:26:52;;;;;;;12.07;4.40;;;16.70;99.90;;;;;;5066920;28;20667;-68
2023/09/16 07:29:18;;;;;;;9.53;3.93;;;17.20;99.90;;;;;;5091626;28;20205;-69
2023/09/16 07:31:44;;;;;;;8.63;3.53;;;17.60;99.90;;;;;;5080911;28;20197;-68
2023/09/16 07:34:09;;;;;;;7.00;3.40;;;18.00;99.90;;;;;;5085751;28;20186;-69
2023/09/16 07:36:35;;;;;;;8.50;3.70;;;18.40;99.90;;;;;;5091831;28;20578;-68
2023/09/16 07:39:01;;;;;;;6.80;3.40;;;18.90;99.90;;;;;;5083050;28;20178;-68
2023/09/16 07:41:26;;;;;;;8.47;2.80;;;19.30;99.90;;;;;;5083306;28;20185;-68
2023/09/16 07:43:52;;;;;;;4.63;3.10;;;19.80;99.90;;;;;;5091662;28;20270;-69
2023/09/16 07:46:17;;;;;;;6.53;3.10;;;20.20;99.90;;;;;;5091618;28;20204;-69
2023/09/16 07:48:43;;;;;;;6.57;3.43;;;20.40;99.90;;;;;;5082266;28;20177;-68
2023/09/16 07:51:11;;;;;;;9.07;3.27;;;20.80;99.90;;;;;;5085103;28;20207;-68
2023/09/16 07:53:36;;;;;;;5.93;2.90;;;21.20;99.90;;;;;;5089221;28;20174;-68
2023/09/16 07:56:02;;;;;;;5.80;3.13;;;21.50;99.90;;;;;;5091468;28;20239;-68
2023/09/16 07:58:27;;;;;;;5.60;3.30;;;21.70;99.90;;;;;;5072367;28;20181;-70
2023/09/16 08:00:53;;;;;;;9.90;3.17;;;21.90;99.90;;;;;;5091390;28;20544;-68
2023/09/16 08:03:19;;;;;;;6.23;3.13;;;22.30;99.90;;;;;;5091552;28;20190;-70
2023/09/16 08:05:45;;;;;;;5.70;2.73;;;22.70;99.90;;;;;;5091053;28;20214;-68
2023/09/16 08:08:10;;;;;;;4.87;3.17;;;23.00;99.90;;;;;;5084684;28;20187;-68
2023/09/16 08:10:36;;;;;;;4.73;3.13;;;23.40;99.90;;;;;;5080256;28;20301;-69
2023/09/16 08:13:01;;;;;;;8.53;2.93;;;24.00;99.90;;;;;;5086332;28;20202;-68
2023/09/16 08:15:27;;;;;;;5.20;2.40;;;24.30;99.90;;;;;;5069761;28;20230;-68
2023/09/16 08:17:54;;;;;;;7.87;2.90;;;25.10;99.90;;;;;;5068102;28;20202;-69
2023/09/16 08:20:20;;;;;;;7.77;2.70;;;25.80;99.90;;;;;;5077933;28;20188;-67
2023/09/16 08:22:46;;;;;;;3.43;2.63;;;26.30;99.90;;;;;;5082184;28;20190;-67
2023/09/16 08:25:15;;;;;;;6.93;2.63;;;26.70;99.90;;;;;;5090784;28;20598;-67
2023/09/16 08:27:40;;;;;;;7.47;2.90;;;27.10;99.90;;;;;;5073158;28;20187;-67
2023/09/16 08:30:06;;;;;;;7.23;2.90;;;27.30;99.90;;;;;;5082200;28;20284;-67
2023/09/16 08:32:33;;;;;;;6.93;2.70;;;27.90;99.90;;;;;;5090571;28;20659;-68
2023/09/16 08:34:59;;;;;;;5.07;2.73;;;28.20;99.90;;;;;;5090466;28;20200;-66
2023/09/16 08:37:24;;;;;;;6.33;2.90;;;28.70;99.90;;;;;;5082223;28;20574;-68
2023/09/16 08:39:50;;;;;;;4.47;2.90;;;29.10;99.90;;;;;;5089998;28;20604;-67
2023/09/16 08:42:39;;;;;;;7.53;3.50;;;29.30;99.90;;;;;;5075646;28;20181;-67
2023/09/16 08:45:08;;;;;;;7.03;3.50;;;29.30;99.90;;;;;;5063680;28;20222;-67
2023/09/16 08:47:43;;;;;;;7.70;3.47;;;29.20;99.90;;;;;;5086096;28;20239;-68
2023/09/16 08:50:10;;;;;;;4.23;2.70;;;29.00;99.90;;;;;;5075775;28;20211;-67
2023/09/16 08:52:48;;;;;;;4.73;3.13;;;29.10;99.90;;;;;;5090301;28;20187;-68
2023/09/16 08:55:14;;;;;;;5.20;3.27;;;29.00;99.90;;;;;;5075429;28;20206;-70
2023/09/16 08:57:54;;;;;;;6.37;2.57;;;29.30;99.90;;;;;;5077728;28;20264;-68
2023/09/16 09:00:24;;;;;;;6.90;2.90;;;29.70;99.90;;;;;;5077369;28;20212;-69
2023/09/16 09:02:51;;;;;;;4.27;2.67;;;30.10;99.90;;;;;;5077984;28;20236;-69
2023/09/16 09:05:20;;;;;;;8.47;2.93;;;30.40;99.90;;;;;;5078144;28;20695;-68
2023/09/16 09:07:45;;;;;;;4.93;3.10;;;30.10;99.90;;;;;;5069053;28;20179;-68
2023/09/16 09:10:12;;;;;;;5.90;2.80;;;29.90;99.90;;;;;;5069974;28;20264;-67
2023/09/16 09:12:42;;;;;;;6.93;2.80;;;29.90;99.90;;;;;;5087731;28;20182;-67
2023/09/16 09:15:13;;;;;;;5.50;2.90;;;29.90;99.90;;;;;;5090110;28;20207;-68
2023/09/16 09:17:45;;;;;;;5.83;2.83;;;28.60;99.90;;;;;;5081036;28;20277;-68
2023/09/16 09:20:18;;;;;;;7.13;2.73;;;27.60;99.90;;;;;;5081569;28;20224;-67
2023/09/16 09:22:47;;;;;;;7.70;3.07;;;27.80;99.90;;;;;;5089984;28;20230;-67
2023/09/16 09:25:12;;;;;;;6.57;3.10;;;27.60;99.90;;;;;;5083744;28;20588;-69
2023/09/16 09:27:38;;;;;;;6.73;2.63;;;27.50;99.90;;;;;;5086907;28;20188;-67
2023/09/16 09:30:04;;;;;;;3.73;2.80;;;27.70;99.90;;;;;;5089806;28;20210;-67
2023/09/16 09:32:31;;;;;;;5.37;2.60;;;27.80;99.90;;;;;;5089668;28;20608;-68
2023/09/16 09:34:58;;;;;;;5.30;3.00;;;28.30;99.90;;;;;;5089751;28;20219;-68
2023/09/16 09:37:24;;;;;;;3.93;2.77;;;28.70;99.90;;;;;;5073683;28;20182;-68
2023/09/16 09:40:09;;;;;;;6.87;2.93;;;28.70;99.90;;;;;;5088637;28;20186;-68
2023/09/16 09:42:43;;;;;;;3.37;2.70;;;29.80;99.90;;;;;;5071942;28;20642;-68
2023/09/16 09:45:10;;;;;;;4.50;2.97;;;30.30;99.90;;;;;;5083353;28;20263;-68
2023/09/16 09:47:40;;;;;;;4.23;2.70;;;30.60;99.90;;;;;;5089077;28;20196;-67
2023/09/16 09:50:07;;;;;;;8.90;3.00;;;30.60;99.90;;;;;;5089549;28;20681;-68
2023/09/16 09:52:34;;;;;;;3.77;2.63;;;30.70;99.90;;;;;;5081185;28;20239;-68
2023/09/16 09:55:00;;;;;;;4.33;2.90;;;30.90;99.90;;;;;;5077014;28;20206;-67
2023/09/16 09:57:27;;;;;;;4.10;2.80;;;31.10;99.90;;;;;;5077344;28;20193;-68
2023/09/16 09:59:53;;;;;;;4.85;2.90;;;31.50;99.90;;;;;;5088892;28;20177;-68
2023/09/16 10:02:24;;;;;;;4.13;2.75;;;31.20;99.90;;;;;;5081307;28;20209;-67
2023/09/16 10:04:59;;;;;;;4.13;2.83;;;31.00;99.90;;;;;;5088155;28;20228;-68
2023/09/16 10:07:26;;;;;;;3.92;2.90;;;31.10;99.90;;;;;;5081354;28;20189;-67
2023/09/16 10:09:52;;;;;;;3.28;2.70;;;31.50;99.90;;;;;;5088797;28;20209;-68
2023/09/16 10:12:19;;;;;;;8.05;2.80;;;31.90;99.90;;;;;;5089895;28;20186;-66
2023/09/16 10:14:45;;;;;;;8.95;2.72;;;31.90;99.90;;;;;;5084714;28;20210;-68
2023/09/16 10:17:11;;;;;;;3.35;2.63;;;32.10;99.90;;;;;;5093137;28;20179;-67
2023/09/16 10:19:37;;;;;;;5.15;3.25;;;31.80;99.90;;;;;;5092463;28;20197;-67
2023/09/16 10:22:03;;;;;;;3.50;3.08;;;31.40;99.90;;;;;;5088702;28;20179;-67
2023/09/16 10:24:28;;;;;;;4.55;3.20;;;30.90;99.90;;;;;;5081213;28;20263;-67
2023/09/16 10:26:57;;;;;;;7.38;2.75;;;31.10;99.90;;;;;;5093200;28;20570;-68
2023/09/16 10:29:25;;;;;;;4.00;2.83;;;31.20;99.90;;;;;;5092419;28;20205;-67
2023/09/16 10:31:53;;;;;;;7.57;3.00;;;31.10;99.90;;;;;;5081680;28;20189;-67
2023/09/16 10:34:18;;;;;;;4.88;2.78;;;31.00;99.90;;;;;;5080895;28;20198;-67
2023/09/16 10:36:44;;;;;;;5.95;2.97;;;30.70;99.90;;;;;;5080839;28;20193;-68
2023/09/16 10:39:12;;;;;;;4.03;3.20;;;30.70;99.90;;;;;;5070712;28;20240;-67
2023/09/16 10:41:38;;;;;;;4.27;3.10;;;30.00;99.90;;;;;;5073750;28;20658;-68
2023/09/16 10:44:06;;;;;;;4.97;3.17;;;30.20;99.90;;;;;;5087971;28;20182;-68
2023/09/16 10:46:34;;;;;;;4.37;2.87;;;30.70;99.90;;;;;;5081011;28;20325;-68
2023/09/16 10:48:59;;;;;;;5.37;2.87;;;30.40;99.90;;;;;;5071792;28;20177;-67
2023/09/16 10:51:28;;;;;;;7.23;3.20;;;30.50;99.90;;;;;;5072592;28;20206;-67
2023/09/16 10:54:09;;;;;;;4.50;3.17;;;30.20;99.90;;;;;;5074647;28;20206;-67
2023/09/16 10:56:41;;;;;;;4.27;2.97;;;30.30;99.90;;;;;;5083526;28;20197;-66
2023/09/16 10:59:10;;;;;;;4.87;3.27;;;30.30;99.90;;;;;;5071727;28;20308;-68
2023/09/16 11:02:20;;;;;;;4.93;3.50;;;30.10;99.90;;;;;;5080636;28;20174;-67
2023/09/16 11:04:46;;;;;;;7.70;3.60;;;29.80;99.90;;;;;;5077740;28;20259;-67
2023/09/16 11:07:12;;;;;;;5.10;3.00;;;29.80;99.90;;;;;;5080507;28;20195;-68
2023/09/16 11:09:39;;;;;;;7.50;3.00;;;29.60;99.90;;;;;;5072328;28;20210;-69
2023/09/16 11:12:05;;;;;;;6.40;3.27;;;29.80;99.90;;;;;;5083799;28;20186;-67
2023/09/16 11:14:31;;;;;;;4.50;3.30;;;29.50;99.90;;;;;;5083349;28;20251;-69
2023/09/16 11:16:58;;;;;;;5.33;3.40;;;29.60;99.90;;;;;;5084187;28;20194;-69
2023/09/16 11:19:25;;;;;;;9.40;3.70;;;28.70;99.90;;;;;;5091439;28;20208;-69
2023/09/16 11:21:54;;;;;;;7.00;3.40;;;28.90;99.90;;;;;;5075032;28;20276;-69
2023/09/16 11:24:19;;;;;;;6.73;3.77;;;28.70;99.90;;;;;;5076187;28;20285;-67
2023/09/16 11:26:49;;;;;;;6.77;3.10;;;28.70;99.90;;;;;;5079963;28;20277;-69
2023/09/16 11:29:21;;;;;;;6.50;3.97;;;29.00;99.90;;;;;;5079207;28;20676;-69
2023/09/16 11:31:47;;;;;;;8.20;3.50;;;28.50;99.90;;;;;;5090616;28;20206;-68
2023/09/16 11:34:13;;;;;;;6.00;3.67;;;28.80;99.90;;;;;;5086036;28;20183;-69
2023/09/16 11:36:45;;;;;;;5.73;3.70;;;29.10;99.90;;;;;;5079762;28;20213;-69
2023/09/16 11:39:12;;;;;;;5.90;3.57;;;29.30;99.90;;;;;;5076610;28;20633;-69
2023/09/16 11:41:38;;;;;;;5.90;3.93;;;29.10;99.90;;;;;;5090247;28;20265;-68
2023/09/16 11:44:07;;;;;;;4.63;3.40;;;29.20;99.90;;;;;;5071482;28;20706;-70
2023/09/16 11:46:34;;;;;;;5.33;3.57;;;29.30;99.90;;;;;;5087918;28;20266;-68
2023/09/16 11:49:03;;;;;;;5.90;3.73;;;29.50;99.90;;;;;;5074562;28;20182;-69
2023/09/16 11:51:30;;;;;;;12.33;3.90;;;29.30;99.90;;;;;;5082926;28;20217;-68
2023/09/16 11:53:56;;;;;;;7.23;3.70;;;29.10;99.90;;;;;;5062991;28;20210;-68
2023/09/16 11:56:26;;;;;;;5.33;3.40;;;29.10;99.90;;;;;;5071218;28;20194;-69
2023/09/16 11:58:54;;;;;;;5.03;3.80;;;29.10;99.90;;;;;;5078763;28;20186;-67
2023/09/16 12:01:28;;;;;;;5.70;3.80;;;29.40;99.90;;;;;;5078096;28;20227;-68
2023/09/16 12:03:55;;;;;;;6.50;4.03;;;29.50;99.90;;;;;;5086918;28;20197;-67
2023/09/16 12:06:22;;;;;;;6.17;4.00;;;29.40;99.90;;;;;;5071213;28;20178;-68
2023/09/16 12:08:48;;;;;;;4.57;3.33;;;29.20;99.90;;;;;;5086849;28;20676;-67
2023/09/16 12:11:15;;;;;;;5.57;3.97;;;29.30;99.90;;;;;;5070852;28;20360;-67
2023/09/16 12:13:41;;;;;;;6.47;3.90;;;29.40;99.90;;;;;;5070744;28;20207;-67
2023/09/16 12:16:07;;;;;;;4.40;3.60;;;29.50;99.90;;;;;;5070746;28;20229;-67
2023/09/16 12:18:32;;;;;;;4.77;3.73;;;29.50;99.90;;;;;;5070026;28;20665;-67
2023/09/16 12:20:58;;;;;;;5.13;3.90;;;29.70;99.90;;;;;;5070738;28;20274;-66
2023/09/16 12:23:30;;;;;;;5.10;3.43;;;29.40;99.90;;;;;;5079108;28;20236;-67
2023/09/16 12:25:55;;;;;;;5.00;3.87;;;29.40;99.90;;;;;;5086351;28;20689;-68
2023/09/16 12:28:23;;;;;;;9.50;5.93;;;29.50;99.90;;;;;;5077516;28;20214;-69
2023/09/16 12:30:52;;;;;;;7.13;3.90;;;29.90;99.90;;;;;;5078648;28;20249;-68
2023/09/16 12:33:19;;;;;;;6.80;4.00;;;30.00;99.90;;;;;;5077571;28;20247;-68
2023/09/16 12:35:46;;;;;;;6.00;3.50;;;30.20;99.90;;;;;;5076562;28;20197;-68
2023/09/16 12:38:12;;;;;;;5.33;3.53;;;30.40;99.90;;;;;;5076818;28;20548;-69
2023/09/16 12:40:38;;;;;;;5.77;3.83;;;30.40;99.90;;;;;;5070770;28;20332;-68
2023/09/16 12:43:06;;;;;;;4.47;3.60;;;30.30;99.90;;;;;;5075214;28;20756;-67